Time;durP1;ratioP1;P1;durP2;ratioP2;P2;SDS_P1;SDS_P2;PMS_P1;PMS_P2;Temp;Humidity;BMP_temperature;BMP_pressure;BME280_temperature;BME280_humidity;BME280_pressure;Samples;Min_cycle;Max_cycle;Signal;HPM_P1;HPM_P2
2022/01/08 00:01:40;;;;;;;99.90;45.05;;;;;;;;;;5056604;28;20021;-71
2022/01/08 00:04:06;;;;;;;90.05;41.08;;;;;;;;;;5039053;28;20025;-71
2022/01/08 00:06:32;;;;;;;86.20;40.28;;;;;;;;;;5056776;28;20063;-71
2022/01/08 00:08:58;;;;;;;83.10;38.47;;;;;;;;;;5056222;28;20112;-71
2022/01/08 00:11:27;;;;;;;89.97;38.13;;;;;;;;;;5056725;28;20028;-71
2022/01/08 00:13:54;;;;;;;92.60;40.72;;;;;;;;;;5056161;28;20115;-71
2022/01/08 00:16:20;;;;;;;81.07;38.00;;;;;;;;;;5056728;28;20419;-71
2022/01/08 00:18:45;;;;;;;87.38;41.05;;;;;;;;;;5056739;28;20082;-71
2022/01/08 00:21:12;;;;;;;93.03;39.80;;;;;;;;;;5055485;28;20028;-71
2022/01/08 00:23:37;;;;;;;74.53;35.58;;;;;;;;;;5056666;28;20099;-71
2022/01/08 00:26:04;;;;;;;83.03;37.08;;;;;;;;;;5056743;28;20098;-71
2022/01/08 00:28:30;;;;;;;90.90;40.15;;;;;;;;;;5055463;28;20021;-71
2022/01/08 00:30:56;;;;;;;77.22;35.03;;;;;;;;;;5056622;28;20021;-71
2022/01/08 00:33:22;;;;;;;79.20;40.28;;;;;;;;;;5056794;28;20365;-71
2022/01/08 00:35:48;;;;;;;80.75;37.50;;;;;;;;;;5057455;28;20013;-71
2022/01/08 00:38:14;;;;;;;85.05;37.03;;;;;;;;;;5059773;28;20074;-71
2022/01/08 00:40:40;;;;;;;77.95;38.25;;;;;;;;;;5059719;28;20020;-72
2022/01/08 00:43:06;;;;;;;83.38;37.53;;;;;;;;;;5059755;28;20048;-71
2022/01/08 00:45:32;;;;;;;93.90;39.67;;;;;;;;;;5059932;28;20017;-71
2022/01/08 00:47:58;;;;;;;82.95;37.15;;;;;;;;;;5059042;28;20320;-71
2022/01/08 00:50:24;;;;;;;88.63;37.38;;;;;;;;;;5058445;28;20335;-71
2022/01/08 00:52:50;;;;;;;87.80;39.78;;;;;;;;;;5060018;28;20040;-71
2022/01/08 00:55:16;;;;;;;84.38;37.28;;;;;;;;;;5058824;28;20028;-71
2022/01/08 00:57:42;;;;;;;97.70;38.50;;;;;;;;;;5059421;28;20103;-71
2022/01/08 01:00:09;;;;;;;79.28;38.00;;;;;;;;;;5042115;28;20338;-72
2022/01/08 01:02:36;;;;;;;75.45;37.47;;;;;;;;;;5041990;28;20017;-71
2022/01/08 01:05:03;;;;;;;93.15;38.42;;;;;;;;;;5058670;28;20020;-71
2022/01/08 01:07:29;;;;;;;80.28;38.15;;;;;;;;;;5059475;28;20066;-71
2022/01/08 01:09:55;;;;;;;77.55;38.22;;;;;;;;;;5059810;28;20025;-71
2022/01/08 01:12:21;;;;;;;83.13;37.33;;;;;;;;;;5059686;28;20021;-71
2022/01/08 01:14:47;;;;;;;93.25;39.40;;;;;;;;;;5059611;28;20025;-71
2022/01/08 01:17:13;;;;;;;92.10;37.75;;;;;;;;;;5059020;28;20075;-71
2022/01/08 01:19:39;;;;;;;90.70;41.80;;;;;;;;;;5059635;28;20021;-71
2022/01/08 01:22:05;;;;;;;85.85;40.25;;;;;;;;;;5058389;28;20067;-71
2022/01/08 01:24:33;;;;;;;91.82;40.53;;;;;;;;;;5058973;28;20320;-71
2022/01/08 01:27:22;;;;;;;91.90;39.63;;;;;;;;;;5058215;28;20036;-71
2022/01/08 01:48:21;;;;;;;80.75;37.13;;;;;;;;;;5056963;28;20025;-71
2022/01/08 01:50:47;;;;;;;92.50;37.92;;;;;;;;;;5057670;28;20025;-71
2022/01/08 01:53:14;;;;;;;84.82;40.55;;;;;;;;;;5057654;28;20143;-71
2022/01/08 01:55:41;;;;;;;92.60;38.88;;;;;;;;;;5058845;28;20027;-71
2022/01/08 01:58:07;;;;;;;88.47;40.50;;;;;;;;;;5058731;28;20021;-71
2022/01/08 02:00:33;;;;;;;94.80;40.97;;;;;;;;;;5057087;28;20065;-71
2022/01/08 02:03:00;;;;;;;94.10;39.97;;;;;;;;;;5057604;28;20092;-71
2022/01/08 02:05:26;;;;;;;94.55;41.50;;;;;;;;;;5058217;28;20366;-72
2022/01/08 02:07:54;;;;;;;90.38;43.17;;;;;;;;;;5058127;28;20021;-71
2022/01/08 02:10:21;;;;;;;92.60;41.40;;;;;;;;;;5057211;28;20025;-71
2022/01/08 02:12:47;;;;;;;104.45;46.00;;;;;;;;;;5040534;28;20021;-71
2022/01/08 02:15:13;;;;;;;96.70;44.15;;;;;;;;;;5057865;28;20083;-71
2022/01/08 02:17:39;;;;;;;104.50;47.03;;;;;;;;;;5058737;28;20016;-71
2022/01/08 02:20:05;;;;;;;91.65;42.40;;;;;;;;;;5057109;28;20043;-72
2022/01/08 02:22:31;;;;;;;100.03;43.38;;;;;;;;;;5058107;28;20095;-72
2022/01/08 02:24:57;;;;;;;97.15;43.35;;;;;;;;;;5057689;28;20067;-71
2022/01/08 02:27:23;;;;;;;106.13;45.05;;;;;;;;;;5057068;28;20021;-71
2022/01/08 02:29:50;;;;;;;94.03;44.10;;;;;;;;;;5057153;28;20021;-71
2022/01/08 02:32:23;;;;;;;102.65;43.90;;;;;;;;;;5057212;28;20446;-72
2022/01/08 02:34:50;;;;;;;103.22;42.28;;;;;;;;;;5057720;28;20071;-72
2022/01/08 02:37:17;;;;;;;108.30;46.03;;;;;;;;;;5056466;28;20070;-71
2022/01/08 02:39:43;;;;;;;110.10;46.92;;;;;;;;;;5057360;28;20047;-71
2022/01/08 02:42:12;;;;;;;109.82;46.85;;;;;;;;;;5057126;28;20017;-71
2022/01/08 02:44:38;;;;;;;105.63;48.33;;;;;;;;;;5056201;28;20025;-71
2022/01/08 02:47:04;;;;;;;100.45;48.78;;;;;;;;;;5056639;28;20021;-71
2022/01/08 02:49:34;;;;;;;103.07;47.17;;;;;;;;;;5056521;28;20020;-71
2022/01/08 02:52:00;;;;;;;107.87;45.83;;;;;;;;;;5055986;28;20017;-72
2022/01/08 02:54:26;;;;;;;109.30;46.67;;;;;;;;;;5054802;28;20033;-73
2022/01/08 02:56:52;;;;;;;114.68;46.40;;;;;;;;;;5055141;28;20039;-72
2022/01/08 02:59:18;;;;;;;116.13;52.15;;;;;;;;;;5054138;28;20025;-72
2022/01/08 03:01:44;;;;;;;116.65;55.15;;;;;;;;;;5057543;28;20067;-72
2022/01/08 03:04:10;;;;;;;132.65;55.75;;;;;;;;;;5039054;28;20429;-71
2022/01/08 03:06:36;;;;;;;124.03;57.83;;;;;;;;;;5055774;28;20021;-72
2022/01/08 03:09:03;;;;;;;132.98;64.90;;;;;;;;;;5054479;28;20062;-72
2022/01/08 03:11:28;;;;;;;127.57;62.80;;;;;;;;;;5054931;28;20311;-72
2022/01/08 03:13:54;;;;;;;115.55;53.25;;;;;;;;;;5036375;28;20033;-72
2022/01/08 03:16:20;;;;;;;109.20;51.20;;;;;;;;;;5053391;28;20078;-71
2022/01/08 03:18:48;;;;;;;106.05;48.15;;;;;;;;;;5053961;28;20017;-72
2022/01/08 03:21:17;;;;;;;95.50;48.92;;;;;;;;;;5052225;28;20074;-72
2022/01/08 03:23:53;;;;;;;100.47;47.33;;;;;;;;;;5054266;28;20031;-72
2022/01/08 03:26:20;;;;;;;100.30;46.15;;;;;;;;;;5054286;28;20028;-73
2022/01/08 03:28:47;;;;;;;110.22;49.20;;;;;;;;;;5038212;28;20342;-72
2022/01/08 03:31:13;;;;;;;109.25;49.75;;;;;;;;;;5055071;28;20021;-71
2022/01/08 03:33:40;;;;;;;102.28;50.20;;;;;;;;;;5036297;28;20036;-72
2022/01/08 03:36:07;;;;;;;101.55;51.03;;;;;;;;;;5054629;28;20020;-72
2022/01/08 03:38:34;;;;;;;106.13;54.30;;;;;;;;;;5052555;28;20021;-72
2022/01/08 03:41:00;;;;;;;104.97;53.75;;;;;;;;;;5053619;28;20035;-72
2022/01/08 03:43:26;;;;;;;99.80;49.70;;;;;;;;;;5054334;28;20024;-72
2022/01/08 03:45:52;;;;;;;89.20;42.97;;;;;;;;;;5052713;28;20052;-72
2022/01/08 03:48:26;;;;;;;79.88;39.50;;;;;;;;;;5053123;28;20052;-72
2022/01/08 03:50:53;;;;;;;80.10;41.30;;;;;;;;;;5054040;28;20049;-72
2022/01/08 03:53:19;;;;;;;73.57;39.72;;;;;;;;;;5037917;28;20037;-72
2022/01/08 03:55:45;;;;;;;92.70;40.47;;;;;;;;;;5053700;28;20119;-72
2022/01/08 03:58:11;;;;;;;83.15;37.22;;;;;;;;;;5055156;28;20108;-72
2022/01/08 04:00:39;;;;;;;72.50;36.25;;;;;;;;;;5054413;28;20025;-72
2022/01/08 04:03:05;;;;;;;67.43;34.25;;;;;;;;;;5054616;28;20021;-72
2022/01/08 04:05:31;;;;;;;106.22;55.90;;;;;;;;;;5037230;28;20039;-72
2022/01/08 04:07:57;;;;;;;109.05;51.70;;;;;;;;;;5054684;28;20025;-73
2022/01/08 04:10:24;;;;;;;98.20;46.75;;;;;;;;;;5055382;28;20033;-72
2022/01/08 04:12:55;;;;;;;100.15;52.90;;;;;;;;;;5058485;28;20423;-72
2022/01/08 04:17:47;;;;;;;110.53;54.17;;;;;;;;;;5057055;28;20020;-72
2022/01/08 04:20:13;;;;;;;100.25;50.20;;;;;;;;;;5056318;28;20285;-72
2022/01/08 04:22:39;;;;;;;100.80;52.47;;;;;;;;;;5057581;28;20038;-72
2022/01/08 04:25:08;;;;;;;106.07;53.55;;;;;;;;;;5040443;28;20052;-72
2022/01/08 04:27:37;;;;;;;97.05;46.17;;;;;;;;;;5058085;28;20037;-73
2022/01/08 04:30:04;;;;;;;90.28;48.03;;;;;;;;;;5056171;28;20067;-72
2022/01/08 04:32:30;;;;;;;96.32;50.75;;;;;;;;;;5056516;28;20441;-72
2022/01/08 04:34:56;;;;;;;92.05;51.40;;;;;;;;;;5058152;28;20116;-72
2022/01/08 04:37:22;;;;;;;95.82;48.28;;;;;;;;;;5058061;28;20116;-72
2022/01/08 04:39:48;;;;;;;93.50;51.05;;;;;;;;;;5056293;28;20021;-72
2022/01/08 04:42:14;;;;;;;95.80;46.40;;;;;;;;;;5056074;28;20080;-72
2022/01/08 04:44:40;;;;;;;94.03;51.10;;;;;;;;;;5055590;28;20029;-71
2022/01/08 04:47:06;;;;;;;98.70;50.03;;;;;;;;;;5058181;28;20068;-72
2022/01/08 04:49:32;;;;;;;109.07;54.35;;;;;;;;;;5056397;28;20020;-72
2022/01/08 04:51:59;;;;;;;100.88;52.08;;;;;;;;;;5055009;28;20048;-71
2022/01/08 04:54:25;;;;;;;103.40;53.40;;;;;;;;;;5055814;28;20112;-72
2022/01/08 04:56:51;;;;;;;99.97;57.70;;;;;;;;;;5056889;28;20104;-71
2022/01/08 04:59:17;;;;;;;105.05;56.28;;;;;;;;;;5038710;28;20028;-72
2022/01/08 05:01:44;;;;;;;101.00;53.80;;;;;;;;;;5038611;28;20119;-71
2022/01/08 05:04:10;;;;;;;78.20;40.47;;;;;;;;;;5055085;28;20063;-72
2022/01/08 05:06:36;;;;;;;82.28;39.97;;;;;;;;;;5055732;28;20434;-72
2022/01/08 05:09:03;;;;;;;84.35;35.03;;;;;;;;;;5038496;28;20021;-72
2022/01/08 05:11:29;;;;;;;59.45;27.80;;;;;;;;;;5054826;28;20029;-72
2022/01/08 05:13:55;;;;;;;63.95;28.48;;;;;;;;;;5057728;28;20075;-72
2022/01/08 05:16:23;;;;;;;58.85;25.80;;;;;;;;;;5057286;28;20211;-72
2022/01/08 05:18:51;;;;;;;63.13;25.20;;;;;;;;;;5056619;28;20013;-72
2022/01/08 05:21:25;;;;;;;65.95;27.67;;;;;;;;;;5058065;28;20087;-72
2022/01/08 05:23:52;;;;;;;62.80;31.85;;;;;;;;;;5038814;28;20025;-72
2022/01/08 05:26:18;;;;;;;75.20;33.40;;;;;;;;;;5057662;28;20032;-72
2022/01/08 05:28:44;;;;;;;61.75;29.73;;;;;;;;;;5056374;28;20343;-73
2022/01/08 05:31:11;;;;;;;62.95;32.05;;;;;;;;;;5057303;28;20025;-73
2022/01/08 05:33:38;;;;;;;52.72;27.83;;;;;;;;;;5056315;28;20159;-72
2022/01/08 05:36:04;;;;;;;53.58;29.63;;;;;;;;;;5057849;28;20102;-69
2022/01/08 05:38:30;;;;;;;48.83;23.30;;;;;;;;;;5055829;28;20029;-71
2022/01/08 05:40:56;;;;;;;51.03;24.95;;;;;;;;;;5055488;28;20020;-72
2022/01/08 05:43:22;;;;;;;58.75;27.60;;;;;;;;;;5056555;28;20028;-71
2022/01/08 05:45:48;;;;;;;62.95;30.20;;;;;;;;;;5057016;28;20017;-71
2022/01/08 05:48:15;;;;;;;57.42;31.20;;;;;;;;;;5057136;28;20223;-71
2022/01/08 05:50:41;;;;;;;48.42;28.38;;;;;;;;;;5038990;28;20021;-72
2022/01/08 05:53:07;;;;;;;52.65;25.20;;;;;;;;;;5039495;28;20032;-72
2022/01/08 05:55:33;;;;;;;59.40;26.90;;;;;;;;;;5055674;28;20073;-72
2022/01/08 05:57:59;;;;;;;49.28;26.73;;;;;;;;;;5039203;28;20028;-72
2022/01/08 06:00:25;;;;;;;52.47;25.42;;;;;;;;;;5055952;28;20013;-72
2022/01/08 06:02:52;;;;;;;53.42;27.60;;;;;;;;;;5054485;28;20036;-72
2022/01/08 06:05:18;;;;;;;53.92;27.15;;;;;;;;;;5053968;28;20024;-72
2022/01/08 06:07:44;;;;;;;60.25;27.35;;;;;;;;;;5056252;28;20477;-71
2022/01/08 06:10:10;;;;;;;68.90;30.98;;;;;;;;;;5056716;28;20431;-72
2022/01/08 06:12:42;;;;;;;90.45;32.17;;;;;;;;;;5056239;28;20040;-72
2022/01/08 06:15:09;;;;;;;65.82;29.85;;;;;;;;;;5038763;28;20139;-72
2022/01/08 06:17:35;;;;;;;65.72;29.75;;;;;;;;;;5054143;28;20013;-71
2022/01/08 06:20:01;;;;;;;71.07;30.83;;;;;;;;;;5056741;28;20082;-72
2022/01/08 06:22:27;;;;;;;70.70;29.58;;;;;;;;;;5039034;28;20024;-72
2022/01/08 06:24:53;;;;;;;75.75;29.90;;;;;;;;;;5055353;28;20024;-72
2022/01/08 06:27:19;;;;;;;64.93;30.25;;;;;;;;;;5053833;28;20296;-72
2022/01/08 06:29:45;;;;;;;59.20;27.23;;;;;;;;;;5037785;28;20032;-72
2022/01/08 06:32:14;;;;;;;58.00;28.80;;;;;;;;;;5055204;28;20414;-72
2022/01/08 06:34:43;;;;;;;47.60;26.50;;;;;;;;;;5055455;28;20036;-71
2022/01/08 06:37:09;;;;;;;57.53;27.45;;;;;;;;;;5039062;28;20171;-71
2022/01/08 06:39:35;;;;;;;59.45;27.90;;;;;;;;;;5055743;28;20374;-72
2022/01/08 06:42:02;;;;;;;69.93;32.28;;;;;;;;;;5055844;28;20079;-72
2022/01/08 06:44:28;;;;;;;85.07;32.33;;;;;;;;;;5056172;28;20139;-72
2022/01/08 06:46:54;;;;;;;74.40;30.70;;;;;;;;;;5056155;28;20035;-72
2022/01/08 06:49:20;;;;;;;85.45;32.13;;;;;;;;;;5055975;28;20095;-72
2022/01/08 06:51:48;;;;;;;120.97;37.92;;;;;;;;;;5054983;28;20079;-71
2022/01/08 06:54:17;;;;;;;112.40;37.78;;;;;;;;;;5056140;28;20032;-72
2022/01/08 06:56:43;;;;;;;144.90;42.47;;;;;;;;;;5054694;28;20044;-72
2022/01/08 06:59:09;;;;;;;113.53;37.20;;;;;;;;;;5055560;28;20485;-72
2022/01/08 07:01:37;;;;;;;73.05;31.17;;;;;;;;;;5055713;28;20070;-72
2022/01/08 07:04:04;;;;;;;79.28;33.88;;;;;;;;;;5055154;28;20099;-72
2022/01/08 07:06:30;;;;;;;69.55;30.83;;;;;;;;;;5056197;28;20427;-72
2022/01/08 07:08:56;;;;;;;69.43;32.67;;;;;;;;;;5056440;28;20027;-72
2022/01/08 07:11:22;;;;;;;87.75;32.53;;;;;;;;;;5038292;28;20027;-72
2022/01/08 07:13:48;;;;;;;95.45;33.00;;;;;;;;;;5056219;28;20037;-72
2022/01/08 07:16:14;;;;;;;76.68;30.10;;;;;;;;;;5038668;28;20040;-72
2022/01/08 07:18:40;;;;;;;73.10;28.45;;;;;;;;;;5056239;28;20104;-72
2022/01/08 07:21:07;;;;;;;65.07;25.95;;;;;;;;;;5056917;28;20048;-72
2022/01/08 07:23:33;;;;;;;63.22;28.00;;;;;;;;;;5055300;28;20021;-72
2022/01/08 07:25:59;;;;;;;67.35;30.00;;;;;;;;;;5056246;28;20123;-72
2022/01/08 07:28:25;;;;;;;58.20;27.77;;;;;;;;;;5054853;28;20048;-72
2022/01/08 07:30:51;;;;;;;52.17;25.55;;;;;;;;;;5055335;28;20377;-72
2022/01/08 07:33:17;;;;;;;49.13;26.52;;;;;;;;;;5057162;28;20037;-72
2022/01/08 07:35:43;;;;;;;61.95;28.92;;;;;;;;;;5056998;28;20024;-72
2022/01/08 07:38:09;;;;;;;68.72;28.55;;;;;;;;;;5038645;28;20029;-72
2022/01/08 07:40:35;;;;;;;68.50;29.02;;;;;;;;;;5055947;28;20024;-72
2022/01/08 07:43:01;;;;;;;55.55;30.27;;;;;;;;;;5055864;28;20028;-72
2022/01/08 07:45:27;;;;;;;70.35;31.58;;;;;;;;;;5056418;28;20411;-72
2022/01/08 07:47:53;;;;;;;76.50;32.50;;;;;;;;;;5059068;28;20017;-72
2022/01/08 07:50:19;;;;;;;70.32;30.83;;;;;;;;;;5060397;28;20025;-72
2022/01/08 07:52:45;;;;;;;72.20;32.88;;;;;;;;;;5055355;28;20029;-72
2022/01/08 07:55:11;;;;;;;76.60;32.88;;;;;;;;;;5056604;28;20051;-72
2022/01/08 07:57:37;;;;;;;76.30;34.42;;;;;;;;;;5038768;28;20021;-72
2022/01/08 08:00:04;;;;;;;74.65;31.88;;;;;;;;;;5054916;28;20027;-72
2022/01/08 08:02:30;;;;;;;85.85;34.90;;;;;;;;;;5056251;28;20335;-72
2022/01/08 08:04:57;;;;;;;86.35;40.13;;;;;;;;;;5055762;28;20013;-72
2022/01/08 08:07:31;;;;;;;84.88;41.85;;;;;;;;;;5056066;28;20024;-72
2022/01/08 08:09:57;;;;;;;81.95;40.25;;;;;;;;;;5056276;28;20387;-72
2022/01/08 08:12:23;;;;;;;87.53;41.33;;;;;;;;;;5054399;28;20024;-72
2022/01/08 08:14:49;;;;;;;91.53;39.92;;;;;;;;;;5056492;28;20167;-72
2022/01/08 08:17:15;;;;;;;83.78;39.17;;;;;;;;;;5056316;28;20191;-72
2022/01/08 08:19:41;;;;;;;87.35;40.38;;;;;;;;;;5055048;28;20043;-72
2022/01/08 08:22:08;;;;;;;82.75;37.72;;;;;;;;;;5055564;28;20071;-72
2022/01/08 08:24:34;;;;;;;88.72;42.05;;;;;;;;;;5038817;28;20127;-72
2022/01/08 08:27:00;;;;;;;86.55;44.15;;;;;;;;;;5055825;28;20119;-72
2022/01/08 08:29:26;;;;;;;88.97;42.95;;;;;;;;;;5055111;28;20403;-72
2022/01/08 08:31:56;;;;;;;90.43;44.45;;;;;;;;;;5055830;28;20375;-72
2022/01/08 08:34:22;;;;;;;92.20;42.83;;;;;;;;;;5055003;28;20335;-72
2022/01/08 08:36:48;;;;;;;92.30;43.75;;;;;;;;;;5055283;28;20067;-72
2022/01/08 08:39:14;;;;;;;93.43;45.17;;;;;;;;;;5056179;28;20029;-73
2022/01/08 08:41:40;;;;;;;87.85;43.97;;;;;;;;;;5055123;28;20340;-72
2022/01/08 08:44:08;;;;;;;86.65;39.72;;;;;;;;;;5055861;28;20021;-73
2022/01/08 08:46:36;;;;;;;90.88;43.75;;;;;;;;;;5038464;28;20045;-72
2022/01/08 08:49:02;;;;;;;76.63;42.53;;;;;;;;;;5055376;28;20335;-72
2022/01/08 08:51:28;;;;;;;86.30;42.92;;;;;;;;;;5056032;28;20032;-73
2022/01/08 08:53:54;;;;;;;85.93;44.90;;;;;;;;;;5054795;28;20040;-72
2022/01/08 08:56:21;;;;;;;83.25;45.25;;;;;;;;;;5054317;28;20017;-72
2022/01/08 08:58:47;;;;;;;88.55;45.33;;;;;;;;;;5057252;28;20163;-72
2022/01/08 09:01:13;;;;;;;86.05;44.85;;;;;;;;;;5057807;28;20062;-72
2022/01/08 09:03:39;;;;;;;83.13;42.20;;;;;;;;;;5059212;28;20029;-73
2022/01/08 09:06:05;;;;;;;79.90;40.63;;;;;;;;;;5058238;28;20025;-73
2022/01/08 09:08:31;;;;;;;82.78;42.88;;;;;;;;;;5058347;28;20024;-72
2022/01/08 09:10:57;;;;;;;88.15;46.28;;;;;;;;;;5057891;28;20021;-72
2022/01/08 09:13:25;;;;;;;86.78;43.88;;;;;;;;;;5042039;28;20393;-72
2022/01/08 09:15:52;;;;;;;94.90;44.60;;;;;;;;;;5058224;28;20477;-72
2022/01/08 09:18:18;;;;;;;89.60;50.35;;;;;;;;;;5059651;28;20027;-72
2022/01/08 09:20:44;;;;;;;92.15;46.20;;;;;;;;;;5058070;28;20021;-72
2022/01/08 09:23:10;;;;;;;85.72;44.08;;;;;;;;;;5041782;28;20025;-72
2022/01/08 09:25:37;;;;;;;81.30;41.38;;;;;;;;;;5059033;28;20415;-72
2022/01/08 09:28:03;;;;;;;82.32;42.55;;;;;;;;;;5058947;28;20021;-73
2022/01/08 09:30:29;;;;;;;89.85;47.42;;;;;;;;;;5058976;28;20438;-72
2022/01/08 09:32:55;;;;;;;85.93;47.80;;;;;;;;;;5058590;28;20013;-72
2022/01/08 09:35:25;;;;;;;83.05;44.78;;;;;;;;;;5058863;28;20017;-73
2022/01/08 09:37:51;;;;;;;;;;;;;;;;;;5041861;28;20370;-72
2022/01/08 09:40:18;;;;;;;97.30;53.42;;;;;;;;;;5058598;28;19999;-72
2022/01/08 09:42:44;;;;;;;95.57;47.78;;;;;;;;;;5059155;28;20102;-72
2022/01/08 09:45:11;;;;;;;102.25;50.67;;;;;;;;;;5058727;28;20045;-72
2022/01/08 09:47:40;;;;;;;93.05;46.50;;;;;;;;;;5041446;28;20017;-72
2022/01/08 09:50:08;;;;;;;89.72;46.45;;;;;;;;;;5057266;28;20016;-72
2022/01/08 09:52:35;;;;;;;89.30;46.63;;;;;;;;;;5057729;28;20116;-72
2022/01/08 09:55:04;;;;;;;101.40;48.10;;;;;;;;;;5056594;28;20116;-74
2022/01/08 09:57:30;;;;;;;90.55;47.90;;;;;;;;;;5041229;28;20021;-72
2022/01/08 09:59:57;;;;;;;87.93;46.33;;;;;;;;;;5041275;28;20028;-72
2022/01/08 10:02:23;;;;;;;91.85;47.60;;;;;;;;;;5058573;28;20045;-72
2022/01/08 10:04:50;;;;;;;112.63;54.28;;;;;;;;;;5058301;28;20025;-72
2022/01/08 10:07:19;;;;;;;107.93;53.20;;;;;;;;;;5058425;28;20021;-73
2022/01/08 10:09:58;;;;;;;102.13;47.95;;;;;;;;;;5040557;28;20411;-72
2022/01/08 10:12:36;;;;;;;94.50;48.30;;;;;;;;;;5057174;28;20052;-72
2022/01/08 10:17:47;;;;;;;100.70;47.75;;;;;;;;;;5058539;28;20017;-72
2022/01/08 10:20:26;;;;;;;99.88;47.22;;;;;;;;;;5056820;28;20422;-72
2022/01/08 10:23:11;;;;;;;96.93;44.70;;;;;;;;;;5058230;28;20032;-72
2022/01/08 10:25:39;;;;;;;89.82;46.00;;;;;;;;;;5057418;28;20032;-72
2022/01/08 10:28:05;;;;;;;96.30;48.45;;;;;;;;;;5056912;28;20040;-73
2022/01/08 10:30:32;;;;;;;116.03;56.53;;;;;;;;;;5023810;28;20032;-72
2022/01/08 10:32:58;;;;;;;100.05;50.28;;;;;;;;;;5058294;28;20112;-72
2022/01/08 10:35:45;;;;;;;93.68;48.70;;;;;;;;;;5058223;28;20024;-72
2022/01/08 10:38:11;;;;;;;95.95;50.78;;;;;;;;;;5057633;28;20013;-72
2022/01/08 10:40:37;;;;;;;93.30;45.03;;;;;;;;;;5040540;28;20036;-72
2022/01/08 10:43:18;;;;;;;100.65;49.00;;;;;;;;;;5056633;28;20366;-71
2022/01/08 10:45:44;;;;;;;;;;;;;;;;;;5057086;28;20044;-72
2022/01/08 10:48:10;;;;;;;88.88;44.95;;;;;;;;;;5057384;28;19905;-72
2022/01/08 10:50:36;;;;;;;105.05;50.08;;;;;;;;;;5058025;28;20054;-72
2022/01/08 10:53:03;;;;;;;104.40;49.15;;;;;;;;;;5057268;28;20427;-72
2022/01/08 10:55:30;;;;;;;106.57;51.00;;;;;;;;;;5057739;28;20060;-72
2022/01/08 10:57:56;;;;;;;111.38;50.40;;;;;;;;;;5057793;28;20031;-72
2022/01/08 11:00:30;;;;;;;104.78;52.72;;;;;;;;;;5057225;28;20453;-72
2022/01/08 11:02:56;;;;;;;113.65;54.60;;;;;;;;;;5057850;28;20024;-72
2022/01/08 11:05:22;;;;;;;112.22;55.33;;;;;;;;;;5055899;28;20108;-72
2022/01/08 11:07:48;;;;;;;123.78;63.15;;;;;;;;;;5055955;28;20324;-72
2022/01/08 11:10:17;;;;;;;109.25;57.00;;;;;;;;;;5057594;28;20028;-72
2022/01/08 11:12:45;;;;;;;106.82;50.17;;;;;;;;;;5057548;28;20096;-72
2022/01/08 11:17:47;;;;;;;120.45;51.97;;;;;;;;;;5056996;28;20021;-72
2022/01/08 11:20:14;;;;;;;110.22;50.70;;;;;;;;;;5056451;28;20451;-72
2022/01/08 11:22:45;;;;;;;116.85;52.80;;;;;;;;;;5055935;28;20071;-72
2022/01/08 11:25:15;;;;;;;122.53;60.78;;;;;;;;;;5056301;28;20104;-72
2022/01/08 11:27:46;;;;;;;145.77;64.25;;;;;;;;;;5057039;28;20036;-72
2022/01/08 11:30:19;;;;;;;130.40;59.88;;;;;;;;;;5039618;28;20027;-72
2022/01/08 11:32:46;;;;;;;118.90;60.25;;;;;;;;;;5056056;28;20013;-72
2022/01/08 11:35:13;;;;;;;133.40;59.70;;;;;;;;;;5057024;28;20044;-72
2022/01/08 11:37:45;;;;;;;126.03;62.95;;;;;;;;;;5055983;28;20025;-72
2022/01/08 11:40:13;;;;;;;133.18;60.42;;;;;;;;;;5055546;28;20427;-72
2022/01/08 11:42:39;;;;;;;116.45;58.63;;;;;;;;;;5057065;28;20025;-72
2022/01/08 11:45:07;;;;;;;136.75;66.60;;;;;;;;;;5056457;28;20016;-72
2022/01/08 11:47:33;;;;;;;142.23;63.88;;;;;;;;;;5056804;28;20013;-72
2022/01/08 11:50:00;;;;;;;149.13;65.95;;;;;;;;;;5056513;28;20024;-72
2022/01/08 11:52:26;;;;;;;122.07;60.42;;;;;;;;;;5055648;28;20017;-72
2022/01/08 11:54:52;;;;;;;121.80;59.35;;;;;;;;;;5056445;28;20347;-72
2022/01/08 11:57:23;;;;;;;122.35;60.80;;;;;;;;;;5056690;28;20017;-71
2022/01/08 11:59:49;;;;;;;106.85;52.45;;;;;;;;;;5057086;28;20021;-72
2022/01/08 12:02:15;;;;;;;111.32;56.20;;;;;;;;;;5055761;28;20044;-72
2022/01/08 12:04:45;;;;;;;122.07;52.95;;;;;;;;;;5055663;28;20389;-72
2022/01/08 12:07:31;;;;;;;117.25;56.88;;;;;;;;;;5056578;28;20100;-72
2022/01/08 12:10:23;;;;;;;120.78;53.53;;;;;;;;;;5039140;28;20353;-72
2022/01/08 12:12:52;;;;;;;103.45;50.88;;;;;;;;;;5055252;28;20395;-72
2022/01/08 12:15:38;;;;;;;121.72;58.78;;;;;;;;;;5039233;28;20039;-72
2022/01/08 12:18:04;;;;;;;130.60;57.47;;;;;;;;;;5039075;28;20025;-72
2022/01/08 12:20:40;;;;;;;110.47;52.25;;;;;;;;;;5055417;28;20075;-72
2022/01/08 12:23:24;;;;;;;101.55;48.03;;;;;;;;;;5055728;28;20079;-72
2022/01/08 12:25:51;;;;;;;98.28;51.85;;;;;;;;;;5055035;28;20020;-72
2022/01/08 12:28:36;;;;;;;107.88;55.72;;;;;;;;;;5038755;28;20136;-72
2022/01/08 12:31:20;;;;;;;98.63;47.70;;;;;;;;;;5055853;28;20198;-72
2022/01/08 12:33:46;;;;;;;126.05;53.75;;;;;;;;;;5060000;28;20090;-72
2022/01/08 12:36:27;;;;;;;98.43;48.92;;;;;;;;;;5042029;28;20330;-72
2022/01/08 12:39:03;;;;;;;99.35;50.85;;;;;;;;;;5042660;28;20017;-72
2022/01/08 12:41:29;;;;;;;93.53;43.97;;;;;;;;;;5058965;28;20025;-72
2022/01/08 12:43:55;;;;;;;90.85;48.67;;;;;;;;;;5059940;28;20021;-72
2022/01/08 12:46:24;;;;;;;97.43;45.08;;;;;;;;;;5042639;28;20025;-72
2022/01/08 12:49:03;;;;;;;106.50;48.55;;;;;;;;;;5059199;28;20024;-72
2022/01/08 12:51:48;;;;;;;93.22;46.08;;;;;;;;;;5058994;28;20021;-72
2022/01/08 12:54:16;;;;;;;104.70;50.75;;;;;;;;;;5059431;28;20336;-72
2022/01/08 12:56:50;;;;;;;109.40;49.47;;;;;;;;;;5059625;28;20482;-72
2022/01/08 12:59:17;;;;;;;104.53;53.13;;;;;;;;;;5060056;28;20013;-72
2022/01/08 13:01:46;;;;;;;103.68;53.67;;;;;;;;;;5042471;28;20028;-72
2022/01/08 13:04:16;;;;;;;104.43;52.40;;;;;;;;;;5058238;28;20028;-72
2022/01/08 13:06:42;;;;;;;100.75;51.25;;;;;;;;;;5059936;28;20100;-72
2022/01/08 13:09:09;;;;;;;113.63;55.20;;;;;;;;;;5042003;28;20048;-72
2022/01/08 13:11:38;;;;;;;113.65;56.50;;;;;;;;;;5058156;28;20021;-72
2022/01/08 13:14:05;;;;;;;117.30;58.40;;;;;;;;;;5058963;28;20331;-72
2022/01/08 13:16:38;;;;;;;117.05;60.78;;;;;;;;;;5058697;28;20052;-72
2022/01/08 13:19:06;;;;;;;108.20;56.70;;;;;;;;;;5058750;28;20021;-72
2022/01/08 13:21:34;;;;;;;118.65;51.95;;;;;;;;;;5041732;28;20347;-72
2022/01/08 13:24:02;;;;;;;108.43;51.72;;;;;;;;;;5041819;28;20017;-72
2022/01/08 13:26:33;;;;;;;113.65;53.75;;;;;;;;;;5058221;28;20028;-72
2022/01/08 13:29:01;;;;;;;114.15;56.10;;;;;;;;;;5059578;28;20419;-72
2022/01/08 13:31:44;;;;;;;103.10;53.03;;;;;;;;;;5059531;28;20047;-72
2022/01/08 13:34:10;;;;;;;114.07;54.40;;;;;;;;;;5058777;28;20044;-72
2022/01/08 13:36:49;;;;;;;108.80;52.65;;;;;;;;;;5041458;28;20021;-72
2022/01/08 13:39:16;;;;;;;;;;;;;;;;;;5059754;28;20025;-72
2022/01/08 13:41:42;;;;;;;106.20;51.65;;;;;;;;;;5041666;28;19909;-72
2022/01/08 13:44:10;;;;;;;116.82;56.85;;;;;;;;;;5057853;28;20025;-72
2022/01/08 13:46:36;;;;;;;113.38;58.88;;;;;;;;;;5059181;28;20031;-71
2022/01/08 13:49:06;;;;;;;113.10;55.75;;;;;;;;;;5059038;28;20040;-72
2022/01/08 13:51:32;;;;;;;122.80;55.92;;;;;;;;;;5057659;28;20385;-72
2022/01/08 13:54:06;;;;;;;122.45;60.45;;;;;;;;;;5041119;28;20028;-72
2022/01/08 13:56:33;;;;;;;112.97;56.67;;;;;;;;;;5057313;28;20451;-72
2022/01/08 13:59:07;;;;;;;106.90;53.63;;;;;;;;;;5058758;28;20040;-72
2022/01/08 14:01:37;;;;;;;108.60;50.10;;;;;;;;;;5057908;28;20075;-72
2022/01/08 14:04:04;;;;;;;115.30;53.85;;;;;;;;;;5057261;28;20366;-72
2022/01/08 14:06:31;;;;;;;111.65;55.22;;;;;;;;;;5041336;28;20090;-72
2022/01/08 14:09:00;;;;;;;118.78;54.70;;;;;;;;;;5058477;28;20335;-72
2022/01/08 14:11:27;;;;;;;115.03;53.92;;;;;;;;;;5058821;28;20025;-72
2022/01/08 14:13:55;;;;;;;113.28;55.70;;;;;;;;;;5057261;28;20500;-72
2022/01/08 14:16:32;;;;;;;104.10;49.78;;;;;;;;;;5040929;28;20028;-72
2022/01/08 14:19:08;;;;;;;117.32;57.17;;;;;;;;;;5058075;28;20044;-72
2022/01/08 14:21:34;;;;;;;135.85;64.43;;;;;;;;;;5058614;28;20024;-72
2022/01/08 14:24:17;;;;;;;133.55;64.75;;;;;;;;;;5057363;28;20020;-72
2022/01/08 14:26:59;;;;;;;127.32;60.95;;;;;;;;;;5040622;28;20052;-72
2022/01/08 14:29:26;;;;;;;113.57;55.10;;;;;;;;;;5040754;28;20024;-72
2022/01/08 14:31:56;;;;;;;121.13;55.78;;;;;;;;;;5056972;28;20420;-72
2022/01/08 14:34:22;;;;;;;115.22;53.22;;;;;;;;;;5040658;28;20032;-72
2022/01/08 14:36:51;;;;;;;126.20;59.35;;;;;;;;;;5057614;28;20070;-72
2022/01/08 14:39:34;;;;;;;117.15;57.88;;;;;;;;;;5058495;28;20016;-72
2022/01/08 14:42:02;;;;;;;126.95;61.03;;;;;;;;;;5058074;28;20085;-72
2022/01/08 14:44:31;;;;;;;136.73;60.53;;;;;;;;;;5056630;28;20368;-72